Latest Weather Observations for Laverton

IDV60901

Issued at 8:31 pm EST Wednesday 24 August 2016 (issued every 10 minutes, with the page automatically refreshed every 10 minutes)

About weather observations | Map of Melbourne area stations | Latest observations for Melbourne area | Other Formats
Station Details ID: 087031 Name: LAVERTON RAAF Lat: -37.86 Lon: 144.76 Height: 20.1 m
Data from the previous 72 hours. | See also: Recent months at Laverton
Date/Time
EST
Temp
°C
App
Temp
°C
Dew
Point
°C
Rel
Hum
%
Delta-T
°C
Wind Press
QNH
hPa
Press
MSL
hPa
Rain since
9am
mm
Dir  Spd
km/h
Gust
km/h
Spd
kts
Gust
kts
24/08:30pm 10.0 7.3 5.6 74 2.0 SSW 9 13 5 7 1014.5 1014.5 0.0
24/08:00pm 10.3 6.3 4.9 69 2.4 S 15 20 8 11 1014.6 1014.6 0.0
24/07:30pm 10.0 7.3 5.8 75 1.9 S 9 11 5 6 1014.5 1014.5 0.0
24/07:00pm 10.1 7.2 6.6 79 1.6 SSE 11 17 6 9 1014.4 1014.4 0.0
24/06:30pm 10.1 6.7 5.9 75 1.9 S 13 20 7 11 1014.2 1014.2 0.0
24/06:00pm 10.0 6.3 6.5 79 1.6 S 15 20 8 11 1014.1 1014.1 0.0
24/05:30pm 10.1 5.7 6.6 79 1.6 S 19 26 10 14 1014.0 1014.0 0.0
24/05:00pm 10.0 5.0 6.5 79 1.6 S 22 30 12 16 1013.8 1013.8 0.0
24/04:30pm 10.2 5.3 6.9 80 1.6 S 22 30 12 16 1013.6 1013.6 0.0
24/04:00pm 10.5 5.7 7.4 81 1.5 S 22 30 12 16 1013.6 1013.6 0.0
24/03:30pm 11.3 6.3 6.6 73 2.2 S 22 30 12 16 1013.7 1013.7 0.0
24/03:00pm 12.2 8.3 7.3 72 2.4 S 17 22 9 12 1013.6 1013.6 0.0
24/02:30pm 12.1 8.4 6.4 68 2.7 SSE 15 20 8 11 1013.7 1013.7 0.0
24/02:00pm 12.4 8.3 6.0 65 3.0 S 17 22 9 12 1013.9 1013.9 0.0
24/01:30pm 12.0 8.5 5.4 64 3.1 SSE 13 22 7 12 1014.1 1014.1 0.0
24/01:00pm 11.9 8.5 6.0 67 2.8 S 13 19 7 10 1014.4 1014.4 0.0
24/12:30pm 11.2 8.0 6.9 75 2.0 S 13 17 7 9 1014.7 1014.7 0.0
24/12:00pm 11.9 9.5 7.0 72 2.3 S 9 15 5 8 1015.0 1015.0 0.0
24/11:32am 11.8 9.5 7.3 74 2.2 SSW 9 15 5 8 1015.5 1015.5 0.0
24/11:30am 11.7 9.3 7.2 74 2.2 SSW 9 15 5 8 1015.5 1015.5 0.0
24/11:21am 11.3 9.0 7.6 78 1.8 SSW 9 15 5 8 1015.6 1015.6 0.0
24/11:20am 11.3 8.6 7.4 77 1.9 SSW 11 15 6 8 1015.6 1015.6 0.0
24/11:02am 11.0 8.4 7.7 80 1.6 SW 11 15 6 8 1015.8 1015.8 0.0
24/11:00am 10.9 8.3 7.8 81 1.5 SW 11 15 6 8 1015.8 1015.8 0.0
24/10:30am 10.3 7.3 7.9 85 1.2 SW 13 19 7 10 1016.1 1016.1 0.0
24/10:00am 9.7 6.7 7.8 88 0.9 SW 13 17 7 9 1016.2 1016.2 0.0
24/09:30am 9.3 6.3 7.6 89 0.8 SW 13 15 7 8 1016.5 1016.5 0.0
24/09:00am 8.4 6.1 7.5 94 0.4 WSW 9 11 5 6 1016.6 1016.6 0.0
24/08:30am 6.4 4.2 6.3 99 0.0 WNW 7 9 4 5 1016.7 1016.7 0.0
24/08:00am 4.5 2.1 4.5 100 0.0 NW 6 7 3 4 1016.7 1016.7 0.0
24/07:30am 3.0 0.2 2.9 99 0.0 NW 7 9 4 5 1016.8 1016.8 0.0
24/07:00am 2.7 -0.2 2.6 99 0.0 NW 7 9 4 5 1016.7 1016.7 0.0
24/06:30am 2.9 -0.3 2.8 99 0.0 WNW 9 11 5 6 1016.6 1016.6 0.0
24/06:00am 3.6 0.5 3.5 99 0.0 WNW 9 11 5 6 1016.4 1016.4 0.0
24/05:30am 4.0 1.3 3.9 99 0.0 WNW 7 9 4 5 1016.4 1016.4 0.0
24/05:00am 4.9 2.4 4.8 99 0.0 W 7 11 4 6 1016.4 1016.4 0.0
24/04:30am 4.7 2.2 4.6 99 0.0 WNW 7 9 4 5 1016.5 1016.5 0.0
24/04:00am 4.6 2.2 4.5 99 0.0 WNW 6 7 3 4 1016.4 1016.4 0.0
24/03:30am 4.6 2.1 4.5 99 0.0 WNW 7 9 4 5 1016.5 1016.5 0.0
24/03:00am 4.6 1.3 4.5 99 0.0 NW 11 13 6 7 1016.8 1016.8 0.0
24/02:30am 4.1 0.3 4.0 99 0.0 NW 13 15 7 8 1016.9 1016.9 0.0
24/02:00am 3.9 0.8 3.8 99 0.0 WNW 9 11 5 6 1017.1 1017.1 0.0
24/01:30am 4.1 1.1 4.0 99 0.0 NW 9 11 5 6 1017.1 1017.1 0.0
24/01:00am 4.1 1.6 4.0 99 0.0 NW 6 9 3 5 1017.6 1017.6 0.0
24/12:30am 4.4 1.1 4.3 99 0.0 NW 11 13 6 7 1017.7 1017.7 0.0
24/12:00am 4.4 1.0 4.1 98 0.1 NW 11 15 6 8 1017.9 1017.9 0.0
 
Date/Time
EST
Temp
°C
App
Temp
°C
Dew
Point
°C
Rel
Hum
%
Delta-T
°C
Wind Press
QNH
hPa
Press
MSL
hPa
Rain since
9am
mm
Dir  Spd
km/h
Gust
km/h
Spd
kts
Gust
kts
23/11:30pm 3.9 0.1 3.8 99 0.0 NW 13 15 7 8 1017.8 1017.8 0.0
23/11:00pm 4.1 0.6 3.7 97 0.2 WSW 11 13 6 7 1017.8 1017.8 0.0
23/10:30pm 4.7 1.7 4.0 95 0.3 SW 9 9 5 5 1017.8 1017.8 0.0
23/10:00pm 5.4 3.5 4.7 95 0.3 SSE 4 9 2 5 1017.9 1017.9 0.0
23/09:30pm 6.3 4.1 5.3 93 0.4 SSE 6 6 3 3 1018.1 1018.1 0.0
23/09:00pm 6.6 4.4 5.4 92 0.5 SSE 6 7 3 4 1018.2 1018.2 0.0
23/08:30pm 8.0 5.8 5.3 83 1.2 S 6 7 3 4 1018.0 1018.0 0.0
23/08:00pm 8.2 6.0 5.1 81 1.4 S 6 7 3 4 1017.9 1017.9 0.0
23/07:30pm 9.0 6.3 5.6 79 1.5 SSE 9 13 5 7 1017.7 1017.7 0.0
23/07:00pm 9.2 6.5 5.6 78 1.6 SSE 9 11 5 6 1017.6 1017.6 0.0
23/06:30pm 9.5 6.7 5.3 75 1.9 SE 9 13 5 7 1017.6 1017.6 0.0
23/06:00pm 10.0 6.8 5.0 71 2.3 SSE 11 13 6 7 1017.6 1017.6 0.0
23/05:30pm 11.0 6.6 4.5 64 2.9 S 17 22 9 12 1017.7 1017.7 0.0
23/05:00pm 11.4 7.3 4.6 63 3.1 SSW 15 19 8 10 1017.5 1017.5 0.0
23/04:30pm 11.6 7.5 4.6 62 3.2 S 15 20 8 11 1017.6 1017.6 0.0
23/04:00pm 12.4 8.8 5.1 61 3.4 S 13 22 7 12 1017.6 1017.6 0.0
23/03:30pm 12.3 8.7 5.2 62 3.3 S 13 19 7 10 1017.4 1017.4 0.0
23/03:00pm 12.9 9.2 4.3 56 3.9 SSE 13 20 7 11 1017.0 1017.0 0.0
23/02:30pm 12.9 8.9 2.7 50 4.5 SSE 13 19 7 10 1017.0 1017.0 0.0
23/02:00pm 13.1 9.3 3.7 53 4.2 SSE 13 24 7 13 1016.7 1016.7 0.0
23/01:30pm 12.8 8.8 4.8 58 3.7 SSE 15 20 8 11 1016.7 1016.7 0.0
23/01:00pm 12.6 8.9 4.3 57 3.8 SSE 13 22 7 12 1016.8 1016.8 0.0
23/12:30pm 11.9 8.2 4.4 60 3.4 SSE 13 22 7 12 1017.1 1017.1 0.0
23/12:00pm 12.6 8.9 4.6 58 3.7 SE 13 22 7 12 1017.2 1017.2 0.0
23/11:30am 12.6 9.7 4.6 58 3.7 S 9 15 5 8 1017.5 1017.5 0.0
23/11:00am 12.1 8.2 3.3 55 3.9 S 13 22 7 12 1017.7 1017.7 0.0
23/10:30am 12.1 9.3 5.0 62 3.3 SSE 9 15 5 8 1018.0 1018.0 0.0
23/10:00am 11.7 9.2 3.7 58 3.5 SW 6 9 3 5 1018.1 1018.1 0.0
23/09:30am 10.8 8.7 6.7 76 1.9 SW 7 11 4 6 1018.2 1018.2 0.0
23/09:00am 9.8 7.7 8.1 89 0.8 SW 9 11 5 6 1018.2 1018.2 1.6
23/08:30am 8.2 6.6 8.1 99 0.0 WSW 6 7 3 4 1018.1 1018.1 1.6
23/08:00am 7.5 5.6 7.4 99 0.0 WSW 7 9 4 5 1017.9 1017.9 1.6
23/07:30am 6.6 4.7 6.5 99 0.0 WSW 6 7 3 4 1017.6 1017.6 1.6
23/07:00am 6.9 4.5 6.8 99 0.0 WSW 9 9 5 5 1017.2 1017.2 1.6
23/06:30am 7.0 5.0 6.9 99 0.0 WSW 7 9 4 5 1016.9 1016.9 1.6
23/06:00am 7.5 5.6 7.4 99 0.0 WSW 7 9 4 5 1016.6 1016.6 1.6
23/05:30am 7.4 5.5 7.4 100 0.0 WSW 7 9 4 5 1016.5 1016.5 1.6
23/05:00am 7.1 5.1 7.1 100 0.0 WSW 7 9 4 5 1016.3 1016.3 1.6
23/04:30am 6.8 4.4 6.8 100 0.0 WSW 9 11 5 6 1016.1 1016.1 1.6
23/04:03am 6.7 3.8 6.7 100 0.0 WSW 11 11 6 6 1015.9 1015.9 1.6
23/04:00am 6.7 3.8 6.7 100 0.0 WSW 11 11 6 6 1015.9 1015.9 1.6
23/03:43am 6.4 4.2 6.4 100 0.0 WSW 7 11 4 6 1015.9 1015.9 1.6
23/03:30am 7.0 5.0 7.0 100 0.0 WSW 7 9 4 5 1015.8 1015.8 1.6
23/03:06am 7.1 5.1 7.0 99 0.0 WSW 7 9 4 5 1015.9 1015.9 1.6
23/03:00am 6.8 4.7 6.7 99 0.0 WSW 7 9 4 5 1015.9 1015.9 1.6
23/02:45am 7.1 6.0 7.0 99 0.0 WSW 2 9 1 5 1015.8 1015.8 1.6
23/02:30am 7.9 7.4 7.8 99 0.0 CALM 0 0 0 0 1015.8 1015.8 1.6
23/02:00am 8.3 6.7 8.2 99 0.0 WSW 6 7 3 4 1016.1 1016.1 1.6
23/01:30am 8.5 6.8 8.4 99 0.0 WSW 7 9 4 5 1016.2 1016.2 1.6
23/01:00am 8.4 6.7 8.3 99 0.0 WSW 7 9 4 5 1016.3 1016.3 1.6
23/12:30am 8.7 7.1 8.6 99 0.0 SW 7 9 4 5 1016.4 1016.4 1.6
23/12:00am 8.8 7.1 8.5 98 0.1 WSW 7 9 4 5 1016.3 1016.3 1.6
 
Date/Time
EST
Temp
°C
App
Temp
°C
Dew
Point
°C
Rel
Hum
%
Delta-T
°C
Wind Press
QNH
hPa
Press
MSL
hPa
Rain since
9am
mm
Dir  Spd
km/h
Gust
km/h
Spd
kts
Gust
kts
22/11:30pm 8.9 7.3 8.6 98 0.1 WSW 7 7 4 4 1016.3 1016.3 1.6
22/11:00pm 8.8 7.2 8.7 99 0.0 WSW 7 9 4 5 1016.4 1016.4 1.6
22/10:30pm 8.9 7.4 8.5 97 0.2 WSW 6 7 3 4 1016.3 1016.3 1.6
22/10:00pm 9.1 7.4 8.3 95 0.4 WSW 7 7 4 4 1016.2 1016.2 1.6
22/09:30pm 9.0 8.8 8.9 99 0.0 CALM 0 0 0 0 1016.1 1016.1 1.6
22/09:00pm 9.2 8.5 8.6 96 0.3 WSW 2 6 1 3 1016.1 1016.1 1.6
22/08:30pm 9.4 7.4 8.6 95 0.4 WSW 9 11 5 6 1015.9 1015.9 1.6
22/08:00pm 9.7 7.7 8.8 94 0.4 SW 9 11 5 6 1015.5 1015.5 1.2
22/07:30pm 10.1 8.1 8.7 91 0.7 SSE 9 13 5 7 1014.9 1014.9 1.0
22/07:00pm 10.1 7.3 8.5 90 0.8 S 13 17 7 9 1014.5 1014.5 1.0
22/06:30pm 10.1 7.6 8.4 89 0.8 SW 11 15 6 8 1014.3 1014.3 1.0
22/06:00pm 10.6 7.1 8.7 88 0.9 S 17 24 9 13 1013.8 1013.8 1.0
22/05:30pm 10.8 6.0 7.5 80 1.6 S 22 30 12 16 1013.4 1013.4 0.8
22/05:00pm 11.5 8.1 7.6 77 1.9 W 15 30 8 16 1013.3 1013.3 0.8
22/04:30pm 11.6 8.8 8.5 81 1.5 ESE 13 19 7 10 1012.5 1012.5 0.8
22/04:00pm 12.3 10.2 8.2 76 2.0 S 9 13 5 7 1012.6 1012.6 0.6
22/03:30pm 12.4 10.7 7.7 73 2.3 SE 6 11 3 6 1012.6 1012.6 0.6
22/03:00pm 11.7 9.4 7.4 75 2.1 SSE 9 11 5 6 1012.5 1012.5 0.6
22/02:39pm 11.8 9.1 7.5 75 2.1 SSE 11 17 6 9 1012.6 1012.6 0.6
22/02:30pm 12.2 9.6 7.9 75 2.1 SE 11 17 6 9 1012.6 1012.6 0.6
22/02:16pm 11.7 9.6 8.2 79 1.7 E 9 19 5 10 1012.5 1012.5 0.4
22/02:00pm 12.4 9.6 7.1 70 2.6 E 11 17 6 9 1012.8 1012.8 0.2
22/01:30pm 12.8 10.1 7.5 70 2.6 SE 11 15 6 8 1012.8 1012.8 0.2
22/01:00pm 13.1 9.6 8.8 75 2.2 S 17 22 9 12 1012.9 1012.9 0.2
22/12:30pm 13.9 12.2 7.7 66 3.1 E 6 9 3 5 1013.1 1013.1 0.0
22/12:00pm 15.1 13.0 5.9 54 4.4 ENE 6 9 3 5 1013.3 1013.3 0.0
22/11:30am 15.1 12.6 8.1 63 3.5 NNW 11 22 6 12 1013.7 1013.7 0.0
22/11:00am 14.4 11.9 8.4 67 3.0 N 11 19 6 10 1013.8 1013.8 0.0
22/10:30am 13.3 10.5 8.4 72 2.4 N 13 19 7 10 1013.9 1013.9 0.0
22/10:00am 12.1 10.5 8.2 77 1.9 NNE 6 11 3 6 1014.2 1014.2 0.0
22/09:30am 11.0 9.3 7.7 80 1.6 SE 6 9 3 5 1014.4 1014.4 0.0
22/09:00am 9.5 7.9 7.8 89 0.8 NE 6 11 3 6 1014.4 1014.4 1.4
22/08:30am 7.8 5.6 7.7 99 0.0 SSE 9 11 5 6 1014.4 1014.4 1.4
22/08:00am 6.7 5.9 6.6 99 0.0 CALM 0 0 0 0 1014.1 1014.1 1.4
22/07:30am 6.4 4.2 6.3 99 0.0 SSW 7 7 4 4 1014.2 1014.2 1.4
22/07:00am 5.6 4.6 5.5 99 0.0 CALM 0 6 0 3 1013.9 1013.9 1.4
22/06:30am 5.4 4.0 5.3 99 0.0 NNW 2 7 1 4 1013.8 1013.8 1.4
22/06:00am 5.7 4.7 5.6 99 0.0 CALM 0 0 0 0 1013.8 1013.8 1.4
22/05:30am 5.8 4.7 5.2 96 0.3 CALM 0 6 0 3 1013.6 1013.6 1.4
22/05:00am 6.7 4.5 5.5 92 0.5 N 6 11 3 6 1013.5 1013.5 1.4
22/04:30am 7.4 4.9 6.7 95 0.3 N 9 11 5 6 1013.5 1013.5 1.4
22/04:00am 6.7 4.5 6.4 98 0.1 N 7 9 4 5 1013.5 1013.5 1.4
22/03:30am 7.3 5.0 5.9 91 0.6 NNW 7 9 4 5 1013.7 1013.7 1.4
22/03:00am 8.7 6.2 6.5 86 1.0 N 9 11 5 6 1013.8 1013.8 1.4
22/02:30am 8.6 6.6 7.1 90 0.7 NNE 7 9 4 5 1013.9 1013.9 1.4
22/02:00am 9.2 7.3 6.8 85 1.1 NNW 6 11 3 6 1014.1 1014.1 1.4
22/01:30am 9.7 7.4 7.5 86 1.0 N 9 13 5 7 1014.1 1014.1 1.4
22/01:00am 9.7 7.4 7.6 87 1.0 N 9 13 5 7 1014.1 1014.1 1.4
22/12:30am 9.7 7.1 7.6 87 1.0 NNE 11 15 6 8 1014.1 1014.1 1.4
22/12:00am 9.9 7.7 7.8 87 1.0 N 9 11 5 6 1014.1 1014.1 1.4
 
Date/Time
EST
Temp
°C
App
Temp
°C
Dew
Point
°C
Rel
Hum
%
Delta-T
°C
Wind Press
QNH
hPa
Press
MSL
hPa
Rain since
9am
mm
Dir  Spd
km/h
Gust
km/h
Spd
kts
Gust
kts
21/11:30pm 10.0 7.8 7.9 87 1.0 N 9 11 5 6 1014.1 1014.1 1.4
21/11:00pm 9.5 7.4 8.1 91 0.7 NW 9 11 5 6 1014.3 1014.3 1.4
21/10:30pm 9.6 7.9 8.2 91 0.7 NW 7 9 4 5 1014.4 1014.4 1.4
21/10:00pm 9.5 9.1 8.4 93 0.5 CALM 0 0 0 0 1014.4 1014.4 1.4
21/09:30pm 9.6 9.2 8.4 92 0.6 CALM 0 0 0 0 1014.3 1014.3 1.4
21/09:00pm 9.8 9.5 8.7 93 0.5 CALM 0 0 0 0 1014.4 1014.4 1.4

Latest Capital City Observations: Canberra | Sydney | Melbourne | Brisbane | Adelaide | Perth | Hobart | Darwin

Other Formats:

Comma delimited format used in spreadsheet applications
http://www.bom.gov.au/fwo/IDV60901/IDV60901.94865.axf

JavaScript Object Notation format (JSON) in row-major order
http://www.bom.gov.au/fwo/IDV60901/IDV60901.94865.json